createdAt,value
2022-12-24T00:01:02.615Z,99765.38
2022-12-24T00:03:29.034Z,99762.56
2022-12-24T00:05:55.908Z,99759.94
2022-12-24T00:08:22.548Z,99764.03
2022-12-24T00:10:51.489Z,99761.59
2022-12-24T00:13:18.586Z,99760.06
2022-12-24T00:15:45.313Z,99753.94
2022-12-24T00:18:11.421Z,99749.34
2022-12-24T00:20:39.937Z,99753.84
2022-12-24T00:23:06.191Z,99759.03
2022-12-24T00:25:32.888Z,99757.75
2022-12-24T00:27:59.247Z,99758.44
2022-12-24T00:30:25.726Z,99744.53
2022-12-24T00:32:51.886Z,99748.69
2022-12-24T00:35:18.676Z,99751.06
2022-12-24T00:37:47.718Z,99755.00
2022-12-24T00:40:14.977Z,99743.84
2022-12-24T00:42:41.322Z,99746.56
2022-12-24T00:45:08.707Z,99741.00
2022-12-24T00:47:34.823Z,99741.31
2022-12-24T00:50:01.648Z,99743.00
2022-12-24T00:52:27.900Z,99739.63
2022-12-24T00:54:54.419Z,99738.94
2022-12-24T00:57:20.805Z,99749.41
2022-12-24T00:59:47.258Z,99744.78
2022-12-24T01:02:13.595Z,99733.06
2022-12-24T01:04:58.546Z,99736.09
2022-12-24T01:07:24.952Z,99740.09
2022-12-24T01:09:51.489Z,99735.41
2022-12-24T01:12:17.730Z,99745.03
2022-12-24T01:14:44.242Z,99748.94
2022-12-24T01:17:10.431Z,99745.94
2022-12-24T01:19:36.878Z,99744.16
2022-12-24T01:22:03.191Z,99742.75
2022-12-24T01:24:29.654Z,99737.84
2022-12-24T01:26:56.177Z,99738.38
2022-12-24T01:29:22.653Z,99732.66
2022-12-24T01:31:48.782Z,99726.81
2022-12-24T01:34:16.259Z,99729.81
2022-12-24T01:36:42.428Z,99728.28
2022-12-24T01:39:08.877Z,99722.06
2022-12-24T01:41:53.709Z,99728.88
2022-12-24T01:44:36.216Z,99726.09
2022-12-24T01:47:19.968Z,99727.47
2022-12-24T01:49:52.809Z,99722.91
2022-12-24T01:52:23.625Z,99732.06
2022-12-24T01:54:54.567Z,99727.09
2022-12-24T01:57:27.109Z,99724.78
2022-12-24T01:59:57.703Z,99734.63
2022-12-24T02:02:25.402Z,99732.72
2022-12-24T02:04:58.358Z,99731.78
2022-12-24T02:07:24.860Z,99737.34
2022-12-24T02:09:54.876Z,99728.16
2022-12-24T02:12:21.072Z,99733.16
2022-12-24T02:14:47.770Z,99732.47
2022-12-24T02:17:32.199Z,99739.88
2022-12-24T02:20:13.563Z,99741.69
2022-12-24T02:22:54.908Z,99741.00
2022-12-24T02:25:46.549Z,99737.69
2022-12-24T02:28:18.947Z,99735.38
2022-12-24T02:30:54.381Z,99743.72
2022-12-24T02:33:31.424Z,99740.13
2022-12-24T02:36:05.782Z,99734.59
2022-12-24T02:38:38.876Z,99738.13
2022-12-24T02:41:11.734Z,99738.84
2022-12-24T02:43:41.741Z,99742.06
2022-12-24T02:46:13.542Z,99740.38
2022-12-24T02:48:42.568Z,99728.47
2022-12-24T02:51:10.035Z,99734.16
2022-12-24T02:53:37.627Z,99738.63
2022-12-24T02:56:40.932Z,99747.34
2022-12-24T02:59:22.175Z,99745.03
2022-12-24T03:02:10.426Z,99750.50
2022-12-24T03:04:48.944Z,99754.03
2022-12-24T03:07:32.242Z,99752.88
2022-12-24T03:10:17.004Z,99755.72
2022-12-24T03:12:51.463Z,99751.28
2022-12-24T03:15:22.105Z,99746.41
2022-12-24T03:17:51.743Z,99747.88
2022-12-24T03:20:29.268Z,99748.97
2022-12-24T03:22:55.779Z,99750.72
2022-12-24T03:25:24.865Z,99750.19
2022-12-24T03:27:51.938Z,99748.88
2022-12-24T03:30:18.154Z,99758.72
2022-12-24T03:32:46.221Z,99757.97
2022-12-24T03:35:12.628Z,99753.13
2022-12-24T03:37:39.852Z,99759.72
2022-12-24T03:40:07.419Z,99761.28
2022-12-24T03:42:33.991Z,99760.81
2022-12-24T03:45:00.562Z,99760.19
2022-12-24T03:47:27.367Z,99764.88
2022-12-24T03:49:53.697Z,99765.13
2022-12-24T03:52:20.390Z,99766.03
2022-12-24T03:54:46.793Z,99775.13
2022-12-24T03:57:13.288Z,99783.91
2022-12-24T03:59:39.700Z,99777.97
2022-12-24T04:02:06.556Z,99782.91
2022-12-24T04:04:36.031Z,99777.19
2022-12-24T04:07:03.803Z,99773.91
2022-12-24T04:09:30.577Z,99785.53
2022-12-24T04:11:57.498Z,99784.53
2022-12-24T04:14:23.898Z,99783.16
2022-12-24T04:16:50.849Z,99790.69
2022-12-24T04:19:17.296Z,99789.22
2022-12-24T04:21:43.861Z,99785.38
2022-12-24T04:24:10.291Z,99800.59
2022-12-24T04:26:36.874Z,99792.97
2022-12-24T04:29:03.220Z,99802.06
2022-12-24T04:31:29.789Z,99802.56
2022-12-24T04:33:56.033Z,99799.88
2022-12-24T04:36:22.553Z,99799.28
2022-12-24T04:38:49.038Z,99804.09
2022-12-24T04:41:23.684Z,99809.63
2022-12-24T04:43:52.622Z,99807.09
2022-12-24T04:46:22.129Z,99811.19
2022-12-24T04:48:50.665Z,99807.78
2022-12-24T04:51:18.382Z,99802.56
2022-12-24T04:53:44.866Z,99810.78
2022-12-24T04:56:13.818Z,99813.94
2022-12-24T04:58:40.507Z,99813.53
2022-12-24T05:01:11.362Z,99815.81
2022-12-24T05:03:37.653Z,99823.78
2022-12-24T05:06:06.333Z,99826.03
2022-12-24T05:08:33.518Z,99830.41
2022-12-24T05:11:01.293Z,99832.25
2022-12-24T05:13:36.495Z,99842.19
2022-12-24T05:16:07.546Z,99837.34
2022-12-24T05:18:33.759Z,99849.97
2022-12-24T05:21:00.196Z,99848.13
2022-12-24T05:23:44.771Z,99845.53
2022-12-24T05:26:21.266Z,99854.06
2022-12-24T05:28:48.816Z,99843.00
2022-12-24T05:31:15.484Z,99849.78
2022-12-24T05:33:41.662Z,99856.69
2022-12-24T05:36:09.326Z,99859.09
2022-12-24T05:38:35.966Z,99865.91
2022-12-24T05:41:02.839Z,99868.75
2022-12-24T05:43:29.050Z,99876.84
2022-12-24T05:46:00.216Z,99884.91
2022-12-24T05:48:27.319Z,99878.69
2022-12-24T05:50:54.789Z,99881.66
2022-12-24T05:53:21.548Z,99885.34
2022-12-24T05:55:48.174Z,99893.13
2022-12-24T05:58:14.650Z,99894.28
2022-12-24T06:00:41.902Z,99905.63
2022-12-24T06:03:08.188Z,99893.44
2022-12-24T06:05:34.801Z,99902.78
2022-12-24T06:08:01.085Z,99905.03
2022-12-24T06:10:27.622Z,99909.88
2022-12-24T06:12:55.163Z,99913.13
2022-12-24T06:15:24.167Z,99905.75
2022-12-24T06:17:50.681Z,99911.00
2022-12-24T06:20:17.197Z,99916.94
2022-12-24T06:22:43.461Z,99914.63
2022-12-24T06:25:10.063Z,99923.72
2022-12-24T06:27:36.361Z,99922.72
2022-12-24T06:30:03.429Z,99925.28
2022-12-24T06:32:30.302Z,99930.09
2022-12-24T06:34:56.903Z,99929.66
2022-12-24T06:37:23.369Z,99940.97
2022-12-24T06:39:50.067Z,99938.69
2022-12-24T06:42:16.255Z,99946.88
2022-12-24T06:44:43.009Z,99949.88
2022-12-24T06:47:09.342Z,99960.97
2022-12-24T06:49:36.111Z,99961.31
2022-12-24T06:52:02.536Z,99966.84
2022-12-24T06:54:29.097Z,99974.78
2022-12-24T06:56:57.859Z,99976.06
2022-12-24T06:59:24.535Z,99982.00
2022-12-24T07:01:50.742Z,99989.63
2022-12-24T07:04:20.374Z,99996.47
2022-12-24T07:06:47.392Z,100005.59
2022-12-24T07:09:14.399Z,100004.59
2022-12-24T07:11:40.871Z,100018.75
2022-12-24T07:14:07.679Z,100015.75
2022-12-24T07:16:34.041Z,100019.84
2022-12-24T07:19:00.788Z,100021.47
2022-12-24T07:21:27.089Z,100023.31
2022-12-24T07:23:53.625Z,100024.56
2022-12-24T07:26:19.876Z,100036.63
2022-12-24T07:28:47.068Z,100039.19
2022-12-24T07:31:13.458Z,100038.63
2022-12-24T07:33:39.991Z,100049.41
2022-12-24T07:36:09.489Z,100052.25
2022-12-24T07:38:37.468Z,100061.16
2022-12-24T07:41:03.881Z,100056.75
2022-12-24T07:43:32.887Z,100057.88
2022-12-24T07:45:59.193Z,100068.81
2022-12-24T07:48:27.328Z,100064.44
2022-12-24T07:50:53.882Z,100069.50
2022-12-24T07:53:20.769Z,100086.41
2022-12-24T07:55:46.964Z,100079.91
2022-12-24T07:58:13.679Z,100092.50
2022-12-24T08:00:40.086Z,100092.63
2022-12-24T08:03:06.779Z,100100.41
2022-12-24T08:05:35.296Z,100098.72
2022-12-24T08:08:02.147Z,100112.06
2022-12-24T08:10:28.650Z,100111.22
2022-12-24T08:12:55.269Z,100115.50
2022-12-24T08:15:21.595Z,100116.88
2022-12-24T08:17:48.452Z,100125.63
2022-12-24T08:20:16.764Z,100124.94
2022-12-24T08:22:43.571Z,100120.81
2022-12-24T08:25:10.151Z,100137.16
2022-12-24T08:27:37.437Z,100142.81
2022-12-24T08:30:04.778Z,100144.06
2022-12-24T08:32:31.340Z,100149.47
2022-12-24T08:34:57.526Z,100147.22
2022-12-24T08:37:24.084Z,100154.16
2022-12-24T08:39:50.578Z,100158.72
2022-12-24T08:42:17.553Z,100159.31
2022-12-24T08:44:43.853Z,100170.78
2022-12-24T08:47:10.917Z,100162.28
2022-12-24T08:49:38.841Z,100174.19
2022-12-24T08:52:06.048Z,100174.75
2022-12-24T08:54:32.898Z,100183.84
2022-12-24T08:56:59.550Z,100183.69
2022-12-24T08:59:25.789Z,100182.25
2022-12-24T09:01:52.678Z,100191.91
2022-12-24T09:04:19.682Z,100186.81
2022-12-24T09:06:46.304Z,100192.19
2022-12-24T09:09:12.535Z,100195.88
2022-12-24T09:11:39.358Z,100195.56
2022-12-24T09:14:05.528Z,100196.88
2022-12-24T09:16:32.126Z,100206.78
2022-12-24T09:18:58.838Z,100196.41
2022-12-24T09:21:25.491Z,100202.66
2022-12-24T09:23:51.782Z,100205.63
2022-12-24T09:26:24.085Z,100204.78
2022-12-24T09:28:51.555Z,100216.13
2022-12-24T09:31:18.957Z,100224.63
2022-12-24T09:33:47.562Z,100224.94
2022-12-24T09:36:14.315Z,100232.72
2022-12-24T09:38:40.582Z,100232.88
2022-12-24T09:41:11.657Z,100236.41
2022-12-24T09:43:39.048Z,100232.28
2022-12-24T09:46:18.113Z,100243.06
2022-12-24T09:48:58.051Z,100241.09
2022-12-24T09:51:40.274Z,100248.88
2022-12-24T09:54:17.220Z,100253.25
2022-12-24T09:56:45.885Z,100255.94
2022-12-24T09:59:22.333Z,100255.19
2022-12-24T10:01:51.157Z,100265.69
2022-12-24T10:04:26.356Z,100267.97
2022-12-24T10:06:53.020Z,100270.28
2022-12-24T10:09:37.474Z,100267.56
2022-12-24T10:12:32.516Z,100278.09
2022-12-24T10:15:37.271Z,100275.34
2022-12-24T10:18:19.007Z,100281.34
2022-12-24T10:21:14.657Z,100284.56
2022-12-24T10:23:52.074Z,100293.06
2022-12-24T10:26:26.630Z,100293.72
2022-12-24T10:28:59.118Z,100292.28
2022-12-24T10:31:34.011Z,100292.13
2022-12-24T10:34:26.098Z,100296.56
2022-12-24T10:36:52.377Z,100303.56
2022-12-24T10:39:25.187Z,100295.22
2022-12-24T10:41:56.952Z,100304.44
2022-12-24T10:44:27.386Z,100317.78
2022-12-24T10:46:54.178Z,100317.22
2022-12-24T10:49:35.752Z,100320.31
2022-12-24T10:52:10.203Z,100317.91
2022-12-24T10:54:39.719Z,100312.84
2022-12-24T10:57:24.443Z,100313.72
2022-12-24T10:59:55.251Z,100326.75
2022-12-24T11:02:39.382Z,100336.66
2022-12-24T11:05:34.733Z,100329.25
2022-12-24T11:08:22.480Z,100331.78
2022-12-24T11:10:59.392Z,100335.16
2022-12-24T11:13:43.009Z,100339.41
2022-12-24T11:16:34.969Z,100337.97
2022-12-24T11:19:03.732Z,100339.84
2022-12-24T11:21:33.736Z,100343.38
2022-12-24T11:24:13.508Z,100343.41
2022-12-24T11:26:43.041Z,100345.44
2022-12-24T11:29:16.307Z,100346.28
2022-12-24T11:31:44.386Z,100350.41
2022-12-24T11:34:29.143Z,100352.97
2022-12-24T11:37:22.485Z,100355.97
2022-12-24T11:39:55.049Z,100361.06
2022-12-24T11:42:34.677Z,100362.06
2022-12-24T11:45:05.831Z,100362.19
2022-12-24T11:47:38.149Z,100363.75
2022-12-24T11:50:19.708Z,100373.81
2022-12-24T11:53:11.834Z,100374.09
2022-12-24T11:55:47.844Z,100375.53
2022-12-24T11:58:45.581Z,100390.91
2022-12-24T12:01:16.289Z,100392.59
2022-12-24T12:03:52.514Z,100389.94
2022-12-24T12:06:31.971Z,100398.28
2022-12-24T12:09:24.329Z,100398.56
2022-12-24T12:12:00.113Z,100401.09
2022-12-24T12:14:39.186Z,100407.66
2022-12-24T12:17:34.395Z,100404.69
2022-12-24T12:20:18.249Z,100410.09
2022-12-24T12:22:44.334Z,100409.97
2022-12-24T12:25:21.647Z,100401.72
2022-12-24T12:27:52.228Z,100402.00
2022-12-24T12:30:21.259Z,100409.97
2022-12-24T12:32:59.672Z,100407.72
2022-12-24T12:35:41.760Z,100403.19
2022-12-24T12:38:22.190Z,100411.38
2022-12-24T12:41:13.613Z,100414.94
2022-12-24T12:44:09.048Z,100421.75
2022-12-24T12:46:57.957Z,100425.44
2022-12-24T12:49:44.832Z,100434.81
2022-12-24T12:52:47.816Z,100436.63
2022-12-24T12:55:29.726Z,100442.31
2022-12-24T12:58:02.646Z,100447.13
2022-12-24T13:00:33.001Z,100456.22
2022-12-24T13:03:11.951Z,100452.69
2022-12-24T13:06:19.088Z,100452.56
2022-12-24T13:08:48.639Z,100457.38
2022-12-24T13:11:30.296Z,100460.66
2022-12-24T13:14:20.038Z,100468.44
2022-12-24T13:17:01.639Z,100473.25
2022-12-24T13:19:38.010Z,100470.69
2022-12-24T13:22:13.932Z,100464.75
2022-12-24T13:24:51.860Z,100466.75
2022-12-24T13:27:33.709Z,100474.72
2022-12-24T13:30:09.122Z,100473.44
2022-12-24T13:32:37.906Z,100485.81
2022-12-24T13:35:35.141Z,100481.53
2022-12-24T13:38:28.819Z,100477.28
2022-12-24T13:40:56.152Z,100474.03
2022-12-24T13:43:22.676Z,100478.13
2022-12-24T13:45:51.152Z,100476.56
2022-12-24T13:48:36.043Z,100480.97
2022-12-24T13:51:24.477Z,100485.38
2022-12-24T13:53:58.182Z,100483.25
2022-12-24T13:56:26.700Z,100484.09
2022-12-24T13:59:10.247Z,100487.78
2022-12-24T14:01:42.318Z,100489.78
2022-12-24T14:04:20.802Z,100498.16
2022-12-24T14:06:51.487Z,100496.19
2022-12-24T14:09:26.388Z,100492.75
2022-12-24T14:11:53.247Z,100504.56
2022-12-24T14:14:35.068Z,100508.69
2022-12-24T14:17:27.199Z,100515.94
2022-12-24T14:19:55.952Z,100513.41
2022-12-24T14:22:22.402Z,100525.63
2022-12-24T14:24:58.771Z,100519.50
2022-12-24T14:27:39.983Z,100516.50
2022-12-24T14:30:28.255Z,100524.59
2022-12-24T14:32:55.310Z,100530.28
2022-12-24T14:35:36.220Z,100529.59
2022-12-24T14:38:05.481Z,100530.16
2022-12-24T14:40:37.968Z,100538.81
2022-12-24T14:43:43.984Z,100543.81
2022-12-24T14:46:16.401Z,100555.72
2022-12-24T14:48:53.058Z,100552.03
2022-12-24T14:51:52.962Z,100556.56
2022-12-24T14:54:34.764Z,100558.41
2022-12-24T14:57:09.722Z,100566.78
2022-12-24T14:59:57.065Z,100563.41
2022-12-24T15:02:29.658Z,100571.19
2022-12-24T15:05:10.303Z,100579.88
2022-12-24T15:07:47.112Z,100579.88
2022-12-24T15:10:25.829Z,100580.16
2022-12-24T15:12:53.862Z,100588.25
2022-12-24T15:15:21.008Z,100593.78
2022-12-24T15:17:47.623Z,100593.78
2022-12-24T15:20:17.995Z,100591.50
2022-12-24T15:22:49.018Z,100603.44
2022-12-24T15:25:30.337Z,100603.91
2022-12-24T15:27:57.772Z,100613.16
2022-12-24T15:30:29.076Z,100616.81
2022-12-24T15:32:57.593Z,100613.66
2022-12-24T15:35:42.293Z,100621.31
2022-12-24T15:38:28.203Z,100623.59
2022-12-24T15:40:55.702Z,100631.56
2022-12-24T15:43:22.718Z,100630.53
2022-12-24T15:45:49.616Z,100629.28
2022-12-24T15:48:37.562Z,100640.00
2022-12-24T15:51:05.611Z,100637.56
2022-12-24T15:53:35.226Z,100636.84
2022-12-24T15:56:03.673Z,100639.13
2022-12-24T15:58:35.700Z,100649.72
2022-12-24T16:01:04.965Z,100637.97
2022-12-24T16:03:32.832Z,100648.25
2022-12-24T16:06:17.795Z,100650.00
2022-12-24T16:08:45.455Z,100646.00
2022-12-24T16:11:20.519Z,100649.41
2022-12-24T16:13:49.927Z,100653.00
2022-12-24T16:16:19.704Z,100646.31
2022-12-24T16:18:58.096Z,100651.72
2022-12-24T16:21:30.607Z,100657.66
2022-12-24T16:24:05.529Z,100649.72
2022-12-24T16:26:35.165Z,100657.16
2022-12-24T16:29:01.671Z,100658.28
2022-12-24T16:31:35.187Z,100655.81
2022-12-24T16:34:02.814Z,100665.91
2022-12-24T16:36:30.803Z,100665.66
2022-12-24T16:39:17.036Z,100671.38
2022-12-24T16:42:02.370Z,100669.25
2022-12-24T16:44:28.989Z,100671.81
2022-12-24T16:46:55.850Z,100680.75
2022-12-24T16:49:22.833Z,100683.91
2022-12-24T16:51:49.340Z,100685.31
2022-12-24T16:54:15.583Z,100682.84
2022-12-24T16:56:43.415Z,100691.25
2022-12-24T16:59:16.518Z,100689.13
2022-12-24T17:01:43.904Z,100685.75
2022-12-24T17:04:10.445Z,100690.72
2022-12-24T17:06:37.206Z,100700.09
2022-12-24T17:09:03.962Z,100704.94
2022-12-24T17:11:30.993Z,100708.09
2022-12-24T17:13:57.307Z,100715.34
2022-12-24T17:16:23.980Z,100714.91
2022-12-24T17:18:51.352Z,100713.22
2022-12-24T17:21:18.503Z,100716.63
2022-12-24T17:23:44.822Z,100719.72
2022-12-24T17:26:14.962Z,100724.84
2022-12-24T17:28:42.016Z,100731.41
2022-12-24T17:31:14.436Z,100740.78
2022-12-24T17:33:41.312Z,100737.09
2022-12-24T17:36:08.253Z,100740.53
2022-12-24T17:38:35.538Z,100739.38
2022-12-24T17:41:06.938Z,100731.25
2022-12-24T17:43:34.483Z,100736.75
2022-12-24T17:46:09.085Z,100743.63
2022-12-24T17:48:35.676Z,100751.88
2022-12-24T17:51:06.950Z,100750.03
2022-12-24T17:53:34.355Z,100744.94
2022-12-24T17:56:01.164Z,100743.06
2022-12-24T17:58:28.576Z,100752.59
2022-12-24T18:00:56.045Z,100752.06
2022-12-24T18:03:22.639Z,100754.28
2022-12-24T18:05:49.939Z,100765.53
2022-12-24T18:08:16.273Z,100762.66
2022-12-24T18:10:42.834Z,100764.34
2022-12-24T18:13:15.513Z,100763.78
2022-12-24T18:15:45.797Z,100765.63
2022-12-24T18:18:12.386Z,100758.09
2022-12-24T18:20:45.975Z,100760.19
2022-12-24T18:23:12.880Z,100767.75
2022-12-24T18:25:39.322Z,100776.25
2022-12-24T18:28:05.495Z,100776.34
2022-12-24T18:30:32.004Z,100777.03
2022-12-24T18:32:59.719Z,100775.94
2022-12-24T18:35:27.461Z,100771.94
2022-12-24T18:37:53.730Z,100783.25
2022-12-24T18:40:20.696Z,100788.44
2022-12-24T18:42:46.977Z,100792.16
2022-12-24T18:45:13.605Z,100788.06
2022-12-24T18:47:39.847Z,100790.75
2022-12-24T18:50:06.847Z,100795.25
2022-12-24T18:52:33.277Z,100792.03
2022-12-24T18:54:59.867Z,100781.66
2022-12-24T18:57:26.234Z,100801.50
2022-12-24T18:59:52.806Z,100793.81
2022-12-24T19:02:19.095Z,100798.31
2022-12-24T19:04:45.775Z,100798.09
2022-12-24T19:07:12.092Z,100796.38
2022-12-24T19:09:38.709Z,100802.66
2022-12-24T19:12:05.221Z,100809.03
2022-12-24T19:14:31.796Z,100812.31
2022-12-24T19:16:57.985Z,100813.78
2022-12-24T19:19:24.969Z,100817.38
2022-12-24T19:21:51.289Z,100829.34
2022-12-24T19:24:17.787Z,100830.63
2022-12-24T19:26:44.195Z,100825.66
2022-12-24T19:29:11.051Z,100837.78
2022-12-24T19:31:37.375Z,100834.22
2022-12-24T19:34:04.122Z,100840.34
2022-12-24T19:36:30.554Z,100837.09
2022-12-24T19:38:58.281Z,100835.25
2022-12-24T19:41:26.816Z,100843.75
2022-12-24T19:43:56.781Z,100852.00
2022-12-24T19:46:26.016Z,100857.44
2022-12-24T19:48:55.949Z,100864.59
2022-12-24T19:51:23.784Z,100855.28
2022-12-24T19:53:51.716Z,100870.81
2022-12-24T19:56:20.191Z,100874.78
2022-12-24T19:58:47.590Z,100864.38
2022-12-24T20:01:17.023Z,100871.31
2022-12-24T20:03:44.794Z,100875.50
2022-12-24T20:06:12.584Z,100878.34
2022-12-24T20:08:39.445Z,100884.13
2022-12-24T20:11:07.431Z,100886.69
2022-12-24T20:13:35.196Z,100891.50
2022-12-24T20:16:06.125Z,100887.34
2022-12-24T20:18:34.261Z,100896.44
2022-12-24T20:21:03.750Z,100889.31
2022-12-24T20:23:30.849Z,100894.19
2022-12-24T20:26:02.629Z,100883.63
2022-12-24T20:28:31.727Z,100878.69
2022-12-24T20:30:58.292Z,100888.94
2022-12-24T20:33:25.453Z,100883.34
2022-12-24T20:35:51.903Z,100884.94
2022-12-24T20:38:18.645Z,100885.25
2022-12-24T20:40:45.857Z,100890.19
2022-12-24T20:43:12.637Z,100894.09
2022-12-24T20:45:39.206Z,100893.75
2022-12-24T20:48:06.562Z,100893.50
2022-12-24T20:50:33.297Z,100887.63
2022-12-24T20:52:59.959Z,100881.97
2022-12-24T20:55:26.335Z,100885.06
2022-12-24T20:57:55.507Z,100894.09
2022-12-24T21:00:22.073Z,100892.69
2022-12-24T21:02:48.917Z,100890.72
2022-12-24T21:05:15.768Z,100875.50
2022-12-24T21:07:43.371Z,100882.50
2022-12-24T21:10:11.691Z,100897.84
2022-12-24T21:12:48.717Z,100896.25
2022-12-24T21:15:16.806Z,100892.97
2022-12-24T21:17:44.264Z,100893.94
2022-12-24T21:20:11.615Z,100894.94
2022-12-24T21:22:38.943Z,100888.03
2022-12-24T21:25:06.520Z,100895.25
2022-12-24T21:27:33.943Z,100891.19
2022-12-24T21:30:00.308Z,100881.31
2022-12-24T21:32:27.500Z,100902.44
2022-12-24T21:34:53.800Z,100900.72
2022-12-24T21:37:20.398Z,100902.69
2022-12-24T21:39:47.316Z,100902.31
2022-12-24T21:42:14.249Z,100899.53
2022-12-24T21:44:40.997Z,100896.84
2022-12-24T21:47:07.568Z,100898.94
2022-12-24T21:49:52.392Z,100897.84
2022-12-24T21:52:18.873Z,100896.00
2022-12-24T21:54:45.175Z,100901.66
2022-12-24T21:57:30.495Z,100898.09
2022-12-24T22:00:17.845Z,100901.66
2022-12-24T22:02:45.631Z,100893.22
2022-12-24T22:05:13.582Z,100904.34
2022-12-24T22:07:59.466Z,100911.72
2022-12-24T22:10:44.989Z,100910.47
2022-12-24T22:13:11.854Z,100918.44
2022-12-24T22:15:44.328Z,100911.19
2022-12-24T22:18:12.210Z,100915.75
2022-12-24T22:20:39.592Z,100921.00
2022-12-24T22:23:06.579Z,100922.72
2022-12-24T22:25:33.710Z,100925.75
2022-12-24T22:28:00.760Z,100926.22
2022-12-24T22:30:27.060Z,100935.16
2022-12-24T22:32:53.580Z,100931.47
2022-12-24T22:35:19.927Z,100936.03
2022-12-24T22:37:46.477Z,100947.69
2022-12-24T22:40:13.155Z,100947.69
2022-12-24T22:42:40.265Z,100956.03
2022-12-24T22:45:07.596Z,100945.25
2022-12-24T22:47:34.446Z,100954.47
2022-12-24T22:50:00.669Z,100947.09
2022-12-24T22:52:27.193Z,100942.28
2022-12-24T22:54:53.338Z,100948.41
2022-12-24T22:57:19.801Z,100969.75
2022-12-24T22:59:46.828Z,100960.19
2022-12-24T23:02:13.635Z,100960.38
2022-12-24T23:04:40.947Z,100963.94
2022-12-24T23:07:09.862Z,100978.03
2022-12-24T23:09:36.216Z,100976.06
2022-12-24T23:12:02.955Z,100981.91
2022-12-24T23:14:47.981Z,100996.16
2022-12-24T23:17:14.695Z,101005.25
2022-12-24T23:19:41.176Z,100996.28
2022-12-24T23:22:08.166Z,101002.69
2022-12-24T23:24:34.573Z,101013.63
2022-12-24T23:27:01.153Z,101017.88
2022-12-24T23:29:28.916Z,101020.19
2022-12-24T23:31:55.419Z,101021.81
2022-12-24T23:34:21.721Z,101020.25
2022-12-24T23:36:48.260Z,101025.53
2022-12-24T23:39:14.491Z,101022.69
2022-12-24T23:41:40.903Z,101020.97
2022-12-24T23:44:07.155Z,101025.66
2022-12-24T23:46:33.777Z,101025.78
2022-12-24T23:49:00.130Z,101030.06
2022-12-24T23:51:27.764Z,101024.78
2022-12-24T23:53:56.502Z,101035.34
2022-12-24T23:56:24.379Z,101038.28
2022-12-24T23:58:51.151Z,101048.97
